Historyczne dane pomiarowe

Dodano dane terminowe – wersja testowa.

Dane z okresu 1951-2019

Wersja bazy: 1.34 [2019-03-16, lista zmian], aktualizacja planowana na 2019-04-15

Dane meteo z obszaru Polski uzyskane na podstawie danych udostępnionych przez Instytut Meteorologii i Gospodarki Wodnej – Państwowy Instytut Badawczy.

 

Wybierz Datę:    

       

TemperaturaWilgotnośćWiatrCiśnienieOpadyŚniegCzas trwania zjawisk
 Stacja t tx tn tng RH VA  wxwx mslp ppp RRR   cm mm wxwxwxwxwxwxwx
1983-08-13 14.7 19.3 11.1- 87.3- 8.0 3.7---- 6.2------------
1983-08-14 13.3 16.3 10.2- 85.5- 2.7 3.7---- 1.5------------
1983-08-15 14.6 21.1 8.1- 77.5- 0.7 1.0---- 0.0------------
1983-08-16 18.8 24.6 9.2- 59.8- 0.0 6.7---- 0.0------------
1983-08-17 20.3 26.3 12.9- 63.8- 3.0 0.7---- 0.0------------
1983-08-18 18.9 24.8 12.9- 80.3- 2.3 0.0---- 0.0------------
1983-08-19 18.2 24.3 11.3- 82.5- 0.3 0.3---- 0.0------------
1983-08-20 17.3 23.9 10.4- 81.0- 1.0 1.0---- 0.0------------
1983-08-21 17.2 24.8 9.2- 77.3- 0.0 1.0---- 0.0------------
1983-08-22 18.1 25.2 10.5- 78.8- 0.3 0.7---- 0.0------------
1983-08-23 17.2 25.5 9.9- 81.8- 0.0 1.0---- 0.0------------
1983-08-24 19.2 26.4 10.4- 77.5- 3.3 0.7---- 0.0------------
1983-08-25 18.6 25.0 13.8- 75.0- 0.0 0.3---- 0.0------------
1983-08-26 17.0 24.9 10.9- 85.3- 0.0 0.0---- 0.0------------
1983-08-27 16.1 22.8 8.0- 75.0- 0.0 2.7---- 0.0------------
1983-08-28 16.4 25.1 7.2- 75.0- 0.0 2.0---- 0.0------------
1983-08-29 15.7 21.5 10.1- 84.3- 2.3 0.3---- 0.0------------
1983-08-30 15.0 21.8 8.5- 75.5- 0.0 1.3---- 0.0------------
1983-08-31 16.2 27.0 6.5- 74.3- 0.0 0.0---- 0.0------------
1983-09-01 18.9 27.8 10.1- 75.8- 0.7 0.0---- 0.0------------
1983-09-02 18.3 26.8 9.6- 71.0- 0.0 2.3---- 0.0------------
1983-09-03 18.6 26.8 9.1- 61.3- 3.7 2.0---- 3.3------------
1983-09-04 13.3 21.6 11.4- 98.8- 8.0 2.0---- 2.5------------
1983-09-05 16.0 21.3 12.4- 83.5- 4.3 0.3---- 0.0------------
1983-09-06 14.8 18.8 11.7- 71.8- 4.3 5.3---- 0.0------------
1983-09-07 10.1 14.1 7.7- 79.0- 8.0 4.0---- 0.2------------
1983-09-08 11.0 16.5 7.1- 66.5- 4.0 2.7---- 0.0------------
1983-09-09 13.5 21.0 2.2- 67.5- 2.7 8.0---- 0.0------------
1983-09-10 20.7 25.3 15.2- 51.5- 2.3 7.0---- 0.0------------
1983-09-11 21.7 28.6 18.6- 66.8- 2.0 4.7---- 1.6------------
314.0 ms

 

Źródłem pochodzenia danych jest Instytut Meteorologii i Gospodarki Wodnej – Państwowy Instytut Badawczy. Dane Instytutu Meteorologii i Gospodarki Wodnej – Państwowego Instytutu Badawczego zostały przetworzone.

Dane źródłowe można odnaleźć na stronie https://dane.imgw.pl